createdAt,value
2019-02-18T00:01:29.087Z,28.93
2019-02-18T00:03:58.862Z,31.40
2019-02-18T00:06:28.743Z,31.37
2019-02-18T00:08:58.821Z,32.53
2019-02-18T00:11:28.624Z,33.83
2019-02-18T00:13:58.569Z,33.10
2019-02-18T00:16:28.302Z,32.77
2019-02-18T00:18:58.064Z,32.97
2019-02-18T00:21:27.736Z,29.70
2019-02-18T00:23:57.429Z,28.37
2019-02-18T00:26:27.283Z,31.10
2019-02-18T00:28:57.116Z,32.57
2019-02-18T00:31:26.827Z,32.60
2019-02-18T00:33:56.931Z,35.93
2019-02-18T00:36:26.833Z,42.10
2019-02-18T00:38:56.669Z,37.07
2019-02-18T00:41:26.497Z,32.17
2019-02-18T00:43:56.148Z,34.00
2019-02-18T00:46:25.876Z,40.60
2019-02-18T00:48:55.676Z,39.70
2019-02-18T00:51:25.383Z,50.63
2019-02-18T00:53:55.214Z,32.80
2019-02-18T00:56:25.138Z,32.33
2019-02-18T00:58:54.949Z,29.07
2019-02-18T01:01:24.757Z,29.33
2019-02-18T01:03:54.734Z,26.27
2019-02-18T01:06:25.405Z,29.87
2019-02-18T01:08:55.318Z,28.30
2019-02-18T01:11:25.509Z,24.50
2019-02-18T01:13:55.202Z,24.17
2019-02-18T01:16:25.049Z,25.77
2019-02-18T01:18:54.937Z,26.70
2019-02-18T01:21:25.017Z,24.43
2019-02-18T01:23:54.812Z,25.50
2019-02-18T01:26:24.574Z,25.47
2019-02-18T01:28:54.334Z,23.67
2019-02-18T01:31:24.059Z,26.27
2019-02-18T01:33:54.007Z,24.63
2019-02-18T01:36:23.886Z,23.20
2019-02-18T01:38:53.497Z,22.27
2019-02-18T01:41:23.246Z,24.00
2019-02-18T01:43:53.028Z,24.23
2019-02-18T01:46:22.727Z,23.07
2019-02-18T01:48:52.484Z,23.63
2019-02-18T01:51:22.353Z,22.87
2019-02-18T01:53:52.201Z,21.20
2019-02-18T01:56:22.037Z,23.03
2019-02-18T01:58:51.995Z,22.20
2019-02-18T02:01:21.845Z,20.70
2019-02-18T02:03:51.774Z,21.33
2019-02-18T02:06:21.547Z,20.37
2019-02-18T02:08:51.597Z,19.50
2019-02-18T02:11:21.475Z,20.57
2019-02-18T02:13:51.224Z,20.13
2019-02-18T02:16:21.076Z,19.37
2019-02-18T02:18:50.994Z,19.90
2019-02-18T02:21:20.872Z,19.60
2019-02-18T02:23:50.620Z,23.50
2019-02-18T02:26:20.496Z,23.50
2019-02-18T02:28:50.423Z,22.20
2019-02-18T02:31:20.276Z,22.80
2019-02-18T02:33:49.921Z,21.93
2019-02-18T02:36:19.743Z,19.67
2019-02-18T02:38:49.591Z,20.47
2019-02-18T02:41:20.382Z,18.30
2019-02-18T02:43:50.219Z,20.40
2019-02-18T02:46:20.061Z,26.83
2019-02-18T02:48:50.164Z,26.80
2019-02-18T02:51:19.952Z,26.13
2019-02-18T02:53:49.926Z,24.87
2019-02-18T02:56:19.828Z,22.50
2019-02-18T02:58:49.611Z,23.43
2019-02-18T03:01:19.313Z,21.63
2019-02-18T03:03:49.441Z,21.67
2019-02-18T03:06:19.249Z,22.97
2019-02-18T03:08:49.064Z,23.00
2019-02-18T03:11:18.995Z,24.27
2019-02-18T03:13:48.847Z,22.93
2019-02-18T03:16:19.031Z,23.87
2019-02-18T03:18:48.852Z,24.00
2019-02-18T03:21:18.650Z,24.73
2019-02-18T03:23:48.577Z,22.50
2019-02-18T03:26:18.385Z,24.87
2019-02-18T03:29:33.879Z,23.03
2019-02-18T03:32:03.689Z,26.57
2019-02-18T03:34:42.655Z,24.57
2019-02-18T03:37:12.535Z,23.73
2019-02-18T03:39:42.436Z,24.33
2019-02-18T03:42:12.417Z,24.03
2019-02-18T03:44:42.260Z,27.67
2019-02-18T03:47:12.208Z,27.40
2019-02-18T03:49:42.271Z,30.30
2019-02-18T03:52:12.086Z,30.17
2019-02-18T03:54:41.837Z,30.13
2019-02-18T03:57:12.074Z,28.53
2019-02-18T03:59:41.874Z,29.77
2019-02-18T04:02:11.786Z,29.13
2019-02-18T04:04:41.559Z,31.20
2019-02-18T04:07:11.552Z,31.23
2019-02-18T04:09:41.348Z,31.13
2019-02-18T04:12:11.188Z,28.13
2019-02-18T04:14:41.409Z,31.67
2019-02-18T04:17:11.088Z,31.10
2019-02-18T04:19:40.961Z,36.70
2019-02-18T04:22:10.936Z,34.70
2019-02-18T04:24:40.707Z,32.43
2019-02-18T04:27:11.692Z,39.87
2019-02-18T04:29:41.689Z,35.53
2019-02-18T04:32:11.621Z,39.00
2019-02-18T04:34:41.448Z,37.93
2019-02-18T04:37:11.397Z,33.97
2019-02-18T04:39:41.275Z,34.57
2019-02-18T04:42:11.167Z,36.03
2019-02-18T04:44:41.054Z,33.27
2019-02-18T04:47:10.916Z,33.53
2019-02-18T04:49:40.670Z,29.20
2019-02-18T04:52:10.675Z,29.13
2019-02-18T04:54:40.576Z,26.10
2019-02-18T04:57:10.573Z,34.20
2019-02-18T04:59:40.475Z,31.97
2019-02-18T05:02:09.931Z,32.57
2019-02-18T05:04:39.819Z,30.93
2019-02-18T05:07:09.800Z,36.43
2019-02-18T05:09:40.089Z,32.30
2019-02-18T05:12:09.962Z,33.37
2019-02-18T05:14:41.022Z,34.80
2019-02-18T05:17:10.831Z,26.77
2019-02-18T05:19:40.654Z,28.37
2019-02-18T05:22:10.529Z,29.20
2019-02-18T05:24:41.482Z,28.13
2019-02-18T05:27:11.221Z,28.97
2019-02-18T05:29:41.184Z,27.30
2019-02-18T05:32:10.997Z,25.80
2019-02-18T05:34:40.887Z,28.00
2019-02-18T05:37:11.183Z,28.03
2019-02-18T05:39:41.053Z,26.90
2019-02-18T05:42:10.933Z,26.37
2019-02-18T05:44:40.753Z,28.43
2019-02-18T05:47:10.621Z,27.87
2019-02-18T05:49:40.491Z,27.20
2019-02-18T05:52:10.391Z,28.00
2019-02-18T05:54:40.249Z,27.17
2019-02-18T05:57:10.077Z,26.70
2019-02-18T05:59:40.062Z,26.37
2019-02-18T06:02:09.746Z,27.00
2019-02-18T06:04:39.474Z,27.47
2019-02-18T06:07:09.357Z,25.87
2019-02-18T06:09:39.211Z,28.23
2019-02-18T06:12:08.993Z,29.63
2019-02-18T06:14:38.809Z,29.13
2019-02-18T06:17:08.532Z,26.87
2019-02-18T06:19:38.413Z,29.17
2019-02-18T06:22:08.184Z,29.33
2019-02-18T06:24:38.089Z,28.83
2019-02-18T06:27:07.940Z,29.57
2019-02-18T06:29:38.863Z,28.67
2019-02-18T06:32:08.792Z,27.07
2019-02-18T06:34:38.964Z,26.40
2019-02-18T06:37:08.645Z,28.90
2019-02-18T06:39:41.729Z,27.87
2019-02-18T06:42:11.342Z,29.37
2019-02-18T06:44:52.301Z,28.77
2019-02-18T06:47:25.319Z,27.87
2019-02-18T06:49:55.181Z,29.93
2019-02-18T06:52:26.240Z,29.53
2019-02-18T06:54:56.241Z,31.87
2019-02-18T06:57:40.919Z,28.47
2019-02-18T07:00:34.427Z,34.00
2019-02-18T07:03:29.307Z,30.77
2019-02-18T07:06:07.904Z,28.63
2019-02-18T07:09:03.113Z,27.73
2019-02-18T07:11:36.168Z,27.50
2019-02-18T07:14:05.998Z,30.93
2019-02-18T07:16:36.217Z,33.77
2019-02-18T07:19:06.300Z,30.10
2019-02-18T07:21:36.051Z,35.70
2019-02-18T07:24:05.771Z,34.93
2019-02-18T07:26:36.925Z,33.27
2019-02-18T07:29:06.831Z,32.57
2019-02-18T07:31:36.643Z,41.90
2019-02-18T07:34:06.401Z,47.20
2019-02-18T07:36:36.165Z,42.47
2019-02-18T07:39:07.789Z,44.90
2019-02-18T07:41:37.620Z,44.53
2019-02-18T07:44:07.359Z,38.13
2019-02-18T07:46:37.157Z,50.53
2019-02-18T07:49:07.005Z,46.07
2019-02-18T07:51:36.899Z,44.10
2019-02-18T07:54:06.727Z,41.47
2019-02-18T07:56:36.748Z,48.10
2019-02-18T07:59:06.550Z,44.73
2019-02-18T08:01:36.530Z,28.70
2019-02-18T08:04:06.275Z,31.30
2019-02-18T08:06:36.189Z,33.83
2019-02-18T08:09:06.860Z,30.43
2019-02-18T08:11:36.536Z,26.27
2019-02-18T08:14:06.560Z,27.63
2019-02-18T08:16:37.507Z,26.90
2019-02-18T08:19:07.357Z,27.73
2019-02-18T08:21:37.028Z,24.23
2019-02-18T08:24:06.912Z,25.70
2019-02-18T08:26:36.947Z,27.23
2019-02-18T08:29:06.887Z,25.27
2019-02-18T08:31:36.837Z,24.23
2019-02-18T08:34:06.613Z,27.00
2019-02-18T08:36:36.527Z,36.30
2019-02-18T08:39:07.474Z,35.77
2019-02-18T08:41:37.288Z,32.90
2019-02-18T08:44:07.131Z,30.70
2019-02-18T08:46:37.015Z,26.57
2019-02-18T08:49:08.063Z,21.77
2019-02-18T08:51:39.226Z,23.47
2019-02-18T08:54:09.020Z,24.67
2019-02-18T08:56:38.949Z,26.30
2019-02-18T08:59:11.001Z,30.77
2019-02-18T09:01:40.198Z,23.67
2019-02-18T09:04:10.124Z,24.77
2019-02-18T09:06:41.179Z,33.17
2019-02-18T09:09:11.074Z,22.00
2019-02-18T09:11:40.901Z,44.43
2019-02-18T09:14:10.649Z,22.30
2019-02-18T09:16:40.441Z,25.30
2019-02-18T09:19:10.389Z,21.20
2019-02-18T09:21:40.237Z,24.53
2019-02-18T09:24:14.531Z,20.13
2019-02-18T09:26:44.423Z,20.53
2019-02-18T09:29:14.091Z,19.90
2019-02-18T09:31:43.942Z,22.07
2019-02-18T09:34:13.646Z,26.40
2019-02-18T09:36:43.447Z,26.63
2019-02-18T09:39:17.650Z,39.57
2019-02-18T09:41:47.559Z,45.20
2019-02-18T09:44:17.175Z,32.87
2019-02-18T09:46:47.037Z,20.93
2019-02-18T09:49:16.923Z,19.27
2019-02-18T09:51:48.345Z,18.40
2019-02-18T09:54:19.528Z,19.43
2019-02-18T09:56:49.336Z,23.43
2019-02-18T09:59:19.305Z,19.87
2019-02-18T10:01:49.224Z,19.27
2019-02-18T10:04:19.085Z,24.47
2019-02-18T10:06:49.010Z,23.37
2019-02-18T10:09:18.970Z,20.13
2019-02-18T10:11:48.819Z,22.23
2019-02-18T10:14:18.722Z,38.23
2019-02-18T10:16:48.557Z,60.07
2019-02-18T10:19:18.836Z,20.73
2019-02-18T10:21:48.791Z,22.00
2019-02-18T10:24:18.654Z,17.97
2019-02-18T10:26:48.521Z,16.07
2019-02-18T10:29:18.492Z,17.17
2019-02-18T10:31:48.370Z,15.40
2019-02-18T10:34:18.217Z,15.37
2019-02-18T10:36:47.998Z,18.77
2019-02-18T10:39:18.053Z,15.90
2019-02-18T10:41:47.895Z,15.70
2019-02-18T10:44:17.725Z,20.03
2019-02-18T10:46:47.418Z,21.43
2019-02-18T10:49:20.331Z,16.53
2019-02-18T10:51:48.832Z,18.63
2019-02-18T10:54:18.675Z,17.90
2019-02-18T10:56:48.550Z,18.90
2019-02-18T10:59:18.371Z,22.40
2019-02-18T11:01:48.239Z,20.10
2019-02-18T11:04:18.091Z,25.77
2019-02-18T11:06:48.280Z,21.17
2019-02-18T11:09:18.131Z,20.20
2019-02-18T11:11:48.054Z,18.73
2019-02-18T11:14:17.921Z,18.30
2019-02-18T11:16:47.701Z,17.60
2019-02-18T11:19:17.924Z,16.97
2019-02-18T11:21:47.777Z,15.40
2019-02-18T11:24:17.649Z,15.53
2019-02-18T11:26:47.549Z,13.73
2019-02-18T11:29:17.505Z,14.17
2019-02-18T11:31:47.381Z,15.67
2019-02-18T11:34:17.299Z,14.97
2019-02-18T11:36:47.266Z,14.93
2019-02-18T11:39:17.153Z,16.27
2019-02-18T11:41:47.253Z,15.27
2019-02-18T11:44:17.207Z,20.07
2019-02-18T11:46:46.985Z,13.67
2019-02-18T11:49:16.696Z,14.40
2019-02-18T11:51:46.643Z,14.37
2019-02-18T11:54:16.805Z,14.23
2019-02-18T11:56:46.902Z,14.10
2019-02-18T11:59:23.928Z,14.63
2019-02-18T12:01:48.210Z,14.07
2019-02-18T12:04:18.035Z,14.20
2019-02-18T12:06:47.867Z,13.70
2019-02-18T12:09:18.021Z,14.17
2019-02-18T12:11:47.905Z,13.60
2019-02-18T12:14:17.806Z,13.60
2019-02-18T12:16:47.760Z,14.07
2019-02-18T12:19:17.642Z,13.53
2019-02-18T12:21:47.350Z,13.13
2019-02-18T12:24:17.432Z,13.83
2019-02-18T12:26:47.104Z,13.90
2019-02-18T12:29:26.192Z,13.97
2019-02-18T12:31:49.321Z,14.17
2019-02-18T12:34:19.119Z,13.20
2019-02-18T12:36:48.895Z,13.53
2019-02-18T12:39:22.567Z,13.83
2019-02-18T12:41:51.503Z,13.87
2019-02-18T12:44:21.330Z,13.77
2019-02-18T12:46:52.230Z,14.07
2019-02-18T12:49:22.136Z,13.90
2019-02-18T12:51:51.899Z,14.53
2019-02-18T12:54:22.925Z,14.63
2019-02-18T12:56:52.886Z,15.10
2019-02-18T12:59:22.835Z,14.20
2019-02-18T13:01:52.665Z,15.63
2019-02-18T13:04:22.428Z,14.57
2019-02-18T13:06:52.706Z,14.60
2019-02-18T13:09:23.668Z,14.73
2019-02-18T13:11:59.066Z,15.03
2019-02-18T13:14:25.113Z,14.07
2019-02-18T13:16:54.852Z,15.00
2019-02-18T13:19:24.717Z,13.47
2019-02-18T13:21:54.590Z,14.17
2019-02-18T13:24:24.477Z,13.87
2019-02-18T13:26:54.387Z,14.37
2019-02-18T13:29:24.134Z,13.77
2019-02-18T13:31:54.030Z,14.23
2019-02-18T13:34:24.034Z,14.93
2019-02-18T13:36:56.708Z,14.53
2019-02-18T13:39:26.382Z,15.57
2019-02-18T13:41:56.273Z,14.27
2019-02-18T13:44:26.189Z,14.73
2019-02-18T13:46:56.033Z,14.50
2019-02-18T13:49:25.903Z,13.87
2019-02-18T13:51:56.739Z,14.47
2019-02-18T13:54:27.815Z,14.83
2019-02-18T13:56:57.655Z,14.50
2019-02-18T13:59:27.427Z,14.13
2019-02-18T14:01:57.450Z,14.37
2019-02-18T14:04:27.413Z,14.00
2019-02-18T14:06:57.178Z,13.50
2019-02-18T14:09:26.874Z,14.77
2019-02-18T14:11:56.833Z,15.40
2019-02-18T14:14:26.734Z,15.30
2019-02-18T14:16:56.522Z,13.60
2019-02-18T14:19:26.287Z,15.23
2019-02-18T14:21:56.062Z,15.73
2019-02-18T14:24:25.993Z,16.67
2019-02-18T14:26:56.061Z,17.10
2019-02-18T14:29:25.799Z,16.27
2019-02-18T14:31:55.715Z,15.93
2019-02-18T14:34:25.692Z,16.73
2019-02-18T14:36:55.489Z,17.73
2019-02-18T14:39:27.003Z,16.43
2019-02-18T14:41:57.929Z,15.70
2019-02-18T14:44:27.750Z,15.10
2019-02-18T14:46:57.503Z,14.63
2019-02-18T14:49:27.285Z,16.07
2019-02-18T14:51:56.989Z,15.80
2019-02-18T14:54:27.185Z,16.57
2019-02-18T14:56:56.948Z,14.57
2019-02-18T14:59:27.110Z,16.17
2019-02-18T15:01:57.378Z,16.53
2019-02-18T15:04:27.184Z,17.77
2019-02-18T15:06:58.469Z,17.80
2019-02-18T15:09:28.249Z,18.00
2019-02-18T15:11:59.435Z,16.97
2019-02-18T15:14:29.201Z,16.30
2019-02-18T15:16:59.143Z,17.73
2019-02-18T15:19:29.092Z,16.13
2019-02-18T15:21:58.864Z,16.93
2019-02-18T15:24:28.767Z,17.73
2019-02-18T15:26:58.547Z,15.37
2019-02-18T15:29:28.324Z,16.70
2019-02-18T15:31:58.133Z,17.57
2019-02-18T15:34:28.106Z,17.53
2019-02-18T15:36:57.853Z,18.13
2019-02-18T15:39:27.741Z,17.43
2019-02-18T15:41:59.073Z,17.83
2019-02-18T15:44:29.129Z,17.57
2019-02-18T15:46:58.855Z,17.77
2019-02-18T15:49:28.586Z,19.23
2019-02-18T15:51:58.364Z,18.50
2019-02-18T15:54:28.218Z,19.93
2019-02-18T15:56:58.110Z,18.77
2019-02-18T15:59:28.088Z,22.73
2019-02-18T16:01:57.805Z,19.30
2019-02-18T16:04:27.668Z,18.13
2019-02-18T16:06:57.620Z,21.17
2019-02-18T16:09:27.392Z,20.37
2019-02-18T16:11:57.411Z,20.37
2019-02-18T16:14:28.380Z,20.97
2019-02-18T16:16:58.254Z,21.00
2019-02-18T16:19:29.208Z,21.00
2019-02-18T16:21:59.141Z,22.47
2019-02-18T16:24:28.831Z,20.50
2019-02-18T16:26:59.233Z,20.70
2019-02-18T16:29:28.959Z,20.97
2019-02-18T16:31:58.669Z,21.63
2019-02-18T16:34:28.897Z,21.33
2019-02-18T16:36:58.628Z,21.87
2019-02-18T16:39:28.423Z,19.67
2019-02-18T16:41:59.700Z,21.17
2019-02-18T16:44:29.604Z,20.83
2019-02-18T16:46:59.301Z,18.27
2019-02-18T16:49:29.250Z,18.90
2019-02-18T16:51:59.032Z,19.50
2019-02-18T16:54:29.376Z,18.67
2019-02-18T16:56:59.325Z,17.53
2019-02-18T16:59:29.334Z,20.43
2019-02-18T17:01:59.123Z,19.47
2019-02-18T17:04:28.928Z,18.67
2019-02-18T17:06:58.808Z,20.67
2019-02-18T17:09:28.660Z,20.03
2019-02-18T17:11:58.597Z,20.83
2019-02-18T17:14:29.663Z,21.93
2019-02-18T17:16:59.447Z,23.40
2019-02-18T17:19:29.496Z,21.97
2019-02-18T17:21:59.492Z,23.07
2019-02-18T17:24:29.553Z,22.77
2019-02-18T17:26:59.410Z,21.73
2019-02-18T17:29:29.132Z,21.90
2019-02-18T17:31:58.974Z,23.03
2019-02-18T17:34:28.749Z,21.13
2019-02-18T17:36:58.802Z,23.77
2019-02-18T17:39:28.622Z,24.17
2019-02-18T17:41:58.394Z,23.97
2019-02-18T17:44:28.204Z,25.47
2019-02-18T17:46:57.975Z,26.00
2019-02-18T17:49:27.730Z,25.83
2019-02-18T17:51:57.889Z,24.63
2019-02-18T17:54:27.823Z,24.97
2019-02-18T17:56:57.718Z,22.70
2019-02-18T17:59:27.526Z,23.87
2019-02-18T18:01:57.388Z,23.07
2019-02-18T18:04:27.484Z,21.80
2019-02-18T18:06:57.355Z,24.97
2019-02-18T18:09:27.276Z,23.90
2019-02-18T18:11:57.233Z,23.30
2019-02-18T18:14:27.106Z,23.77
2019-02-18T18:16:57.167Z,23.77
2019-02-18T18:19:27.347Z,23.57
2019-02-18T18:21:57.235Z,22.70
2019-02-18T18:24:27.004Z,24.30
2019-02-18T18:26:56.868Z,23.77
2019-02-18T18:29:26.629Z,22.63
2019-02-18T18:31:56.585Z,22.37
2019-02-18T18:34:26.885Z,22.53
2019-02-18T18:36:56.782Z,25.07
2019-02-18T18:39:26.628Z,22.93
2019-02-18T18:41:56.494Z,23.07
2019-02-18T18:44:26.337Z,22.90
2019-02-18T18:46:56.258Z,22.73
2019-02-18T18:49:26.320Z,22.23
2019-02-18T18:51:56.069Z,23.40
2019-02-18T18:54:25.998Z,23.20
2019-02-18T18:56:55.801Z,23.80
2019-02-18T18:59:25.534Z,23.70
2019-02-18T19:01:55.844Z,25.87
2019-02-18T19:04:25.902Z,23.70
2019-02-18T19:06:55.676Z,26.27
2019-02-18T19:09:26.853Z,26.30
2019-02-18T19:11:56.774Z,25.07
2019-02-18T19:14:26.494Z,27.07
2019-02-18T19:16:56.472Z,27.93
2019-02-18T19:19:26.512Z,28.37
2019-02-18T19:21:56.301Z,27.13
2019-02-18T19:24:26.242Z,25.83
2019-02-18T19:26:56.036Z,27.40
2019-02-18T19:29:26.133Z,27.30
2019-02-18T19:31:55.808Z,28.23
2019-02-18T19:34:25.576Z,27.67
2019-02-18T19:36:55.399Z,27.93
2019-02-18T19:39:25.451Z,28.80
2019-02-18T19:41:55.547Z,26.53
2019-02-18T19:44:25.441Z,27.87
2019-02-18T19:46:56.641Z,28.53
2019-02-18T19:49:26.393Z,28.27
2019-02-18T19:51:56.239Z,28.47
2019-02-18T19:54:26.215Z,28.37
2019-02-18T19:56:55.961Z,26.97
2019-02-18T19:59:25.872Z,27.93
2019-02-18T20:01:55.728Z,27.30
2019-02-18T20:04:25.716Z,29.37
2019-02-18T20:06:55.517Z,27.33
2019-02-18T20:09:25.488Z,28.23
2019-02-18T20:11:55.248Z,26.50
2019-02-18T20:14:25.182Z,26.63
2019-02-18T20:16:55.437Z,28.47
2019-02-18T20:19:25.320Z,27.37
2019-02-18T20:21:55.020Z,27.80
2019-02-18T20:24:25.384Z,27.70
2019-02-18T20:26:55.616Z,27.83
2019-02-18T20:29:25.376Z,26.50
2019-02-18T20:31:55.509Z,27.63
2019-02-18T20:34:25.253Z,28.33
2019-02-18T20:36:55.432Z,27.03
2019-02-18T20:39:26.589Z,28.63
2019-02-18T20:41:56.504Z,29.13
2019-02-18T20:44:26.620Z,29.70
2019-02-18T20:46:57.689Z,28.27
2019-02-18T20:49:27.463Z,27.37
2019-02-18T20:51:57.301Z,28.93
2019-02-18T20:54:27.183Z,26.30
2019-02-18T20:56:56.872Z,28.47
2019-02-18T20:59:26.725Z,26.50
2019-02-18T21:01:56.548Z,26.57
2019-02-18T21:04:26.711Z,27.33
2019-02-18T21:06:56.393Z,28.13
2019-02-18T21:09:26.419Z,28.37
2019-02-18T21:11:56.386Z,27.77
2019-02-18T21:14:26.035Z,28.87
2019-02-18T21:16:55.937Z,29.70
2019-02-18T21:19:27.306Z,28.73
2019-02-18T21:21:57.112Z,28.40
2019-02-18T21:24:26.919Z,30.73
2019-02-18T21:26:56.871Z,30.47
2019-02-18T21:29:26.752Z,28.33
2019-02-18T21:31:56.884Z,28.87
2019-02-18T21:34:26.758Z,28.33
2019-02-18T21:36:56.416Z,29.93
2019-02-18T21:39:26.104Z,28.07
2019-02-18T21:41:55.854Z,29.10
2019-02-18T21:44:26.811Z,29.27
2019-02-18T21:46:57.170Z,28.20
2019-02-18T21:49:26.798Z,29.23
2019-02-18T21:51:56.603Z,30.03
2019-02-18T21:54:26.251Z,29.20
2019-02-18T21:56:56.048Z,30.10
2019-02-18T21:59:25.904Z,30.67
2019-02-18T22:01:55.684Z,32.13
2019-02-18T22:04:26.095Z,31.17
2019-02-18T22:06:57.484Z,30.17
2019-02-18T22:09:28.506Z,30.57
2019-02-18T22:11:58.321Z,31.20
2019-02-18T22:14:33.350Z,31.47
2019-02-18T22:17:00.712Z,31.10
2019-02-18T22:19:30.511Z,31.20
2019-02-18T22:22:00.694Z,32.83
2019-02-18T22:24:30.484Z,30.83
2019-02-18T22:27:00.173Z,33.40
2019-02-18T22:29:30.282Z,33.60
2019-02-18T22:32:00.154Z,32.80
2019-02-18T22:34:29.843Z,32.43
2019-02-18T22:37:00.435Z,32.83
2019-02-18T22:39:30.327Z,33.10
2019-02-18T22:42:00.063Z,32.13
2019-02-18T22:44:30.051Z,33.20
2019-02-18T22:46:59.913Z,34.33
2019-02-18T22:49:29.806Z,35.53
2019-02-18T22:51:59.572Z,34.90
2019-02-18T22:54:29.433Z,36.93
2019-02-18T22:56:59.356Z,36.87
2019-02-18T22:59:29.747Z,39.53
2019-02-18T23:01:59.507Z,38.70
2019-02-18T23:04:29.352Z,38.67
2019-02-18T23:06:59.233Z,38.23
2019-02-18T23:09:29.175Z,38.50
2019-02-18T23:12:01.096Z,38.40
2019-02-18T23:14:31.153Z,40.67
2019-02-18T23:17:01.066Z,42.80
2019-02-18T23:19:32.015Z,43.60
2019-02-18T23:22:01.929Z,43.83
2019-02-18T23:24:31.614Z,44.47
2019-02-18T23:27:01.486Z,43.17
2019-02-18T23:29:31.564Z,46.20
2019-02-18T23:32:01.372Z,45.67
2019-02-18T23:34:31.226Z,43.83
2019-02-18T23:37:00.998Z,43.13
2019-02-18T23:39:30.795Z,47.40
2019-02-18T23:42:00.575Z,47.77
2019-02-18T23:44:30.428Z,45.30
2019-02-18T23:47:00.247Z,41.17
2019-02-18T23:49:30.162Z,43.90
2019-02-18T23:52:00.010Z,43.70
2019-02-18T23:54:29.820Z,38.97
2019-02-18T23:56:59.971Z,40.73
2019-02-18T23:59:29.729Z,40.97
